createdAt,value
2016-12-14T00:00:20.306Z,1017.24
2016-12-14T00:01:00.874Z,1017.22
2016-12-14T00:01:41.394Z,1017.23
2016-12-14T00:02:21.931Z,1017.23
2016-12-14T00:03:02.517Z,1017.21
2016-12-14T00:03:43.065Z,1017.19
2016-12-14T00:04:23.582Z,1017.23
2016-12-14T00:05:04.088Z,1017.24
2016-12-14T00:05:44.638Z,1017.23
2016-12-14T00:06:25.192Z,1017.26
2016-12-14T00:07:05.747Z,1017.24
2016-12-14T00:07:46.266Z,1017.24
2016-12-14T00:08:26.786Z,1017.19
2016-12-14T00:09:07.347Z,1017.23
2016-12-14T00:09:47.861Z,1017.19
2016-12-14T00:10:28.394Z,1017.19
2016-12-14T00:11:08.937Z,1017.21
2016-12-14T00:11:49.491Z,1017.2
2016-12-14T00:12:30.053Z,1017.19
2016-12-14T00:13:10.590Z,1017.2
2016-12-14T00:13:51.123Z,1017.19
2016-12-14T00:14:31.665Z,1017.15
2016-12-14T00:15:12.207Z,1017.17
2016-12-14T00:15:52.725Z,1017.17
2016-12-14T00:16:33.265Z,1017.22
2016-12-14T00:17:13.808Z,1017.16
2016-12-14T00:17:54.352Z,1017.2
2016-12-14T00:18:34.877Z,1017.22
2016-12-14T00:19:15.404Z,1017.22
2016-12-14T00:19:55.950Z,1017.22
2016-12-14T00:20:36.473Z,1017.23
2016-12-14T00:21:17.050Z,1017.21
2016-12-14T00:21:57.552Z,1017.21
2016-12-14T00:22:38.098Z,1017.22
2016-12-14T00:23:18.608Z,1017.27
2016-12-14T00:23:59.135Z,1017.25
2016-12-14T00:24:39.688Z,1017.25
2016-12-14T00:25:20.232Z,1017.24
2016-12-14T00:26:00.764Z,1017.27
2016-12-14T00:26:41.303Z,1017.26
2016-12-14T00:27:21.852Z,1017.29
2016-12-14T00:28:02.404Z,1017.26
2016-12-14T00:28:42.914Z,1017.25
2016-12-14T00:29:23.448Z,1017.27
2016-12-14T00:30:03.991Z,1017.25
2016-12-14T00:30:44.535Z,1017.22
2016-12-14T00:31:25.093Z,1017.27
2016-12-14T00:32:05.643Z,1017.26
2016-12-14T00:32:46.167Z,1017.25
2016-12-14T00:33:26.701Z,1017.24
2016-12-14T00:34:07.263Z,1017.26
2016-12-14T00:34:47.823Z,1017.25
2016-12-14T00:35:28.342Z,1017.21
2016-12-14T00:36:08.901Z,1017.27
2016-12-14T00:36:49.466Z,1017.27
2016-12-14T00:37:30.009Z,1017.26
2016-12-14T00:38:10.554Z,1017.26
2016-12-14T00:38:51.066Z,1017.27
2016-12-14T00:39:31.597Z,1017.26
2016-12-14T00:40:12.129Z,1017.26
2016-12-14T00:40:52.671Z,1017.27
2016-12-14T00:41:33.181Z,1017.26
2016-12-14T00:42:13.705Z,1017.27
2016-12-14T00:42:54.223Z,1017.27
2016-12-14T00:43:34.753Z,1017.25
2016-12-14T00:44:15.276Z,1017.27
2016-12-14T00:44:55.804Z,1017.27
2016-12-14T00:45:36.332Z,1017.26
2016-12-14T00:46:16.866Z,1017.24
2016-12-14T00:46:57.423Z,1017.22
2016-12-14T00:47:37.935Z,1017.2
2016-12-14T00:48:18.466Z,1017.25
2016-12-14T00:48:58.992Z,1017.26
2016-12-14T00:49:39.558Z,1017.25
2016-12-14T00:50:20.097Z,1017.27
2016-12-14T00:51:00.627Z,1017.3
2016-12-14T00:51:41.174Z,1017.27
2016-12-14T00:52:21.728Z,1017.24
2016-12-14T00:53:02.269Z,1017.28
2016-12-14T00:53:42.819Z,1017.28
2016-12-14T00:54:23.378Z,1017.25
2016-12-14T00:55:03.928Z,1017.25
2016-12-14T00:55:44.473Z,1017.29
2016-12-14T00:56:25.021Z,1017.29
2016-12-14T00:57:05.561Z,1017.25
2016-12-14T00:57:46.142Z,1017.25
2016-12-14T00:58:26.653Z,1017.25
2016-12-14T00:59:07.165Z,1017.25
2016-12-14T00:59:47.689Z,1017.25
2016-12-14T01:00:28.211Z,1017.28
2016-12-14T01:01:08.743Z,1017.24
2016-12-14T01:01:49.274Z,1017.22
2016-12-14T01:02:29.826Z,1017.28
2016-12-14T01:03:10.311Z,1017.26
2016-12-14T01:03:50.827Z,1017.23
2016-12-14T01:04:31.358Z,1017.25
2016-12-14T01:05:11.877Z,1017.25
2016-12-14T01:05:52.401Z,1017.26
2016-12-14T01:06:32.931Z,1017.26
2016-12-14T01:07:13.454Z,1017.19
2016-12-14T01:07:53.955Z,1017.18
2016-12-14T01:08:34.477Z,1017.21
2016-12-14T01:09:15.008Z,1017.21
2016-12-14T01:09:55.534Z,1017.22
2016-12-14T01:10:36.073Z,1017.23
2016-12-14T01:11:16.609Z,1017.22
2016-12-14T01:11:57.145Z,1017.21
2016-12-14T01:12:37.665Z,1017.22
2016-12-14T01:13:18.204Z,1017.26
2016-12-14T01:13:58.760Z,1017.26
2016-12-14T01:14:39.275Z,1017.22
2016-12-14T01:15:19.831Z,1017.22
2016-12-14T01:16:00.391Z,1017.18
2016-12-14T01:16:40.963Z,1017.21
2016-12-14T01:17:21.488Z,1017.2
2016-12-14T01:18:02.010Z,1017.18
2016-12-14T01:18:42.535Z,1017.18
2016-12-14T01:19:23.072Z,1017.17
2016-12-14T01:20:03.610Z,1017.15
2016-12-14T01:20:44.140Z,1017.14
2016-12-14T01:21:24.677Z,1017.14
2016-12-14T01:22:05.180Z,1017.12
2016-12-14T01:22:45.704Z,1017.08
2016-12-14T01:23:26.242Z,1017.1
2016-12-14T01:24:06.764Z,1017.1
2016-12-14T01:24:47.307Z,1017.11
2016-12-14T01:25:27.839Z,1017.07
2016-12-14T01:26:08.359Z,1017.08
2016-12-14T01:26:48.916Z,1017.09
2016-12-14T01:27:29.468Z,1017.07
2016-12-14T01:28:09.981Z,1017.06
2016-12-14T01:28:50.532Z,1017.05
2016-12-14T01:29:31.081Z,1017.05
2016-12-14T01:30:11.652Z,1017.06
2016-12-14T01:30:52.205Z,1017.05
2016-12-14T01:31:32.740Z,1017.06
2016-12-14T01:32:13.262Z,1017.08
2016-12-14T01:32:53.810Z,1017.06
2016-12-14T01:33:34.330Z,1017.1
2016-12-14T01:34:14.844Z,1017.06
2016-12-14T01:34:55.353Z,1017.09
2016-12-14T01:35:35.906Z,1017.02
2016-12-14T01:36:16.419Z,1017.01
2016-12-14T01:36:56.938Z,1017.05
2016-12-14T01:37:37.613Z,1017.07
2016-12-14T01:38:18.245Z,1017.09
2016-12-14T01:38:58.824Z,1017.03
2016-12-14T01:39:39.403Z,1016.99
2016-12-14T01:40:19.930Z,1017
2016-12-14T01:41:00.483Z,1017.04
2016-12-14T01:41:40.991Z,1017.05
2016-12-14T01:42:21.548Z,1017.01
2016-12-14T01:43:02.063Z,1017.02
2016-12-14T01:43:42.584Z,1017.04
2016-12-14T01:44:23.096Z,1017.02
2016-12-14T01:45:03.615Z,1016.98
2016-12-14T01:45:44.156Z,1017.02
2016-12-14T01:46:24.704Z,1017
2016-12-14T01:47:05.261Z,1016.98
2016-12-14T01:47:45.797Z,1017
2016-12-14T01:48:26.322Z,1016.96
2016-12-14T01:49:06.882Z,1016.97
2016-12-14T01:49:47.413Z,1016.99
2016-12-14T01:50:27.939Z,1016.95
2016-12-14T01:51:08.503Z,1016.93
2016-12-14T01:51:49.031Z,1016.93
2016-12-14T01:52:29.567Z,1016.94
2016-12-14T01:53:10.132Z,1016.92
2016-12-14T01:53:50.663Z,1016.93
2016-12-14T01:54:31.221Z,1016.93
2016-12-14T01:55:11.745Z,1016.91
2016-12-14T01:55:52.289Z,1016.94
2016-12-14T01:56:32.842Z,1016.91
2016-12-14T01:57:13.347Z,1016.93
2016-12-14T01:57:53.899Z,1016.92
2016-12-14T01:58:34.490Z,1016.94
2016-12-14T01:59:15.008Z,1016.94
2016-12-14T01:59:55.539Z,1016.93
2016-12-14T02:00:36.068Z,1016.89
2016-12-14T02:01:16.597Z,1016.9
2016-12-14T02:01:57.154Z,1016.93
2016-12-14T02:02:37.652Z,1016.9
2016-12-14T02:03:18.173Z,1016.88
2016-12-14T02:03:58.725Z,1016.87
2016-12-14T02:04:39.269Z,1016.86
2016-12-14T02:05:19.823Z,1016.87
2016-12-14T02:06:00.400Z,1016.9
2016-12-14T02:06:40.962Z,1016.88
2016-12-14T02:07:21.533Z,1016.86
2016-12-14T02:08:02.037Z,1016.8
2016-12-14T02:08:42.581Z,1016.79
2016-12-14T02:09:23.155Z,1016.85
2016-12-14T02:10:03.712Z,1016.82
2016-12-14T02:10:44.239Z,1016.84
2016-12-14T02:11:24.814Z,1016.84
2016-12-14T02:12:05.384Z,1016.89
2016-12-14T02:12:45.952Z,1016.89
2016-12-14T02:13:26.503Z,1016.88
2016-12-14T02:14:07.080Z,1016.89
2016-12-14T02:14:47.640Z,1016.87
2016-12-14T02:15:28.176Z,1016.89
2016-12-14T02:16:08.697Z,1016.88
2016-12-14T02:16:49.232Z,1016.88
2016-12-14T02:17:29.762Z,1016.88
2016-12-14T02:18:10.307Z,1016.86
2016-12-14T02:18:50.850Z,1016.84
2016-12-14T02:19:31.390Z,1016.86
2016-12-14T02:20:11.938Z,1016.82
2016-12-14T02:20:52.466Z,1016.85
2016-12-14T02:21:33.008Z,1016.83
2016-12-14T02:22:13.551Z,1016.83
2016-12-14T02:22:54.045Z,1016.86
2016-12-14T02:23:34.565Z,1016.91
2016-12-14T02:24:15.121Z,1016.89
2016-12-14T02:24:55.672Z,1016.93
2016-12-14T02:25:36.211Z,1016.92
2016-12-14T02:26:16.799Z,1016.92
2016-12-14T02:26:57.326Z,1016.9
2016-12-14T02:27:37.859Z,1016.9
2016-12-14T02:28:18.386Z,1016.9
2016-12-14T02:28:58.909Z,1016.89
2016-12-14T02:29:39.430Z,1016.89
2016-12-14T02:30:19.973Z,1016.9
2016-12-14T02:31:00.490Z,1016.88
2016-12-14T02:31:41.080Z,1016.86
2016-12-14T02:32:21.608Z,1016.89
2016-12-14T02:33:02.142Z,1016.9
2016-12-14T02:33:42.676Z,1016.89
2016-12-14T02:34:23.203Z,1016.91
2016-12-14T02:35:03.748Z,1016.92
2016-12-14T02:35:44.257Z,1016.95
2016-12-14T02:36:24.834Z,1016.97
2016-12-14T02:37:05.349Z,1016.93
2016-12-14T02:37:45.898Z,1016.98
2016-12-14T02:38:26.434Z,1016.97
2016-12-14T02:39:06.972Z,1017
2016-12-14T02:39:47.507Z,1017.01
2016-12-14T02:40:28.023Z,1016.99
2016-12-14T02:41:08.531Z,1016.98
2016-12-14T02:41:49.040Z,1017
2016-12-14T02:42:29.583Z,1016.96
2016-12-14T02:43:10.093Z,1016.98
2016-12-14T02:43:50.611Z,1016.99
2016-12-14T02:44:31.132Z,1016.96
2016-12-14T02:45:11.647Z,1016.96
2016-12-14T02:45:52.242Z,1016.96
2016-12-14T02:46:32.775Z,1016.97
2016-12-14T02:47:13.303Z,1016.97
2016-12-14T02:47:53.809Z,1016.94
2016-12-14T02:48:34.335Z,1016.94
2016-12-14T02:49:14.853Z,1016.95
2016-12-14T02:49:55.387Z,1016.94
2016-12-14T02:50:35.963Z,1016.93
2016-12-14T02:51:16.520Z,1016.9
2016-12-14T02:51:57.072Z,1016.89
2016-12-14T02:52:37.603Z,1016.92
2016-12-14T02:53:18.143Z,1016.85
2016-12-14T02:53:58.661Z,1016.88
2016-12-14T02:54:39.183Z,1016.87
2016-12-14T02:55:19.712Z,1016.89
2016-12-14T02:56:00.235Z,1016.87
2016-12-14T02:56:40.769Z,1016.87
2016-12-14T02:57:21.289Z,1016.87
2016-12-14T02:58:01.823Z,1016.85
2016-12-14T02:58:42.349Z,1016.87
2016-12-14T02:59:22.870Z,1016.82
2016-12-14T03:00:03.423Z,1016.84
2016-12-14T03:00:43.973Z,1016.86
2016-12-14T03:01:24.506Z,1016.86
2016-12-14T03:02:05.013Z,1016.87
2016-12-14T03:02:45.537Z,1016.85
2016-12-14T03:03:26.061Z,1016.87
2016-12-14T03:04:06.590Z,1016.84
2016-12-14T03:04:47.093Z,1016.87
2016-12-14T03:05:27.656Z,1016.85
2016-12-14T03:06:08.192Z,1016.86
2016-12-14T03:06:48.726Z,1016.84
2016-12-14T03:07:29.267Z,1016.8
2016-12-14T03:08:09.797Z,1016.78
2016-12-14T03:08:50.320Z,1016.75
2016-12-14T03:09:30.837Z,1016.83
2016-12-14T03:10:11.353Z,1016.83
2016-12-14T03:10:51.896Z,1016.85
2016-12-14T03:11:32.421Z,1016.83
2016-12-14T03:12:12.954Z,1016.82
2016-12-14T03:12:53.496Z,1016.8
2016-12-14T03:13:34.004Z,1016.81
2016-12-14T03:14:14.536Z,1016.8
2016-12-14T03:14:55.078Z,1016.75
2016-12-14T03:15:35.618Z,1016.78
2016-12-14T03:16:16.134Z,1016.77
2016-12-14T03:16:56.686Z,1016.77
2016-12-14T03:17:37.211Z,1016.79
2016-12-14T03:18:17.745Z,1016.84
2016-12-14T03:18:58.261Z,1016.77
2016-12-14T03:19:38.790Z,1016.81
2016-12-14T03:20:19.327Z,1016.82
2016-12-14T03:20:59.845Z,1016.77
2016-12-14T03:21:40.390Z,1016.75
2016-12-14T03:22:20.917Z,1016.76
2016-12-14T03:23:01.442Z,1016.7
2016-12-14T03:23:41.957Z,1016.74
2016-12-14T03:24:22.505Z,1016.75
2016-12-14T03:25:03.053Z,1016.77
2016-12-14T03:25:43.545Z,1016.79
2016-12-14T03:26:24.059Z,1016.76
2016-12-14T03:27:04.585Z,1016.8
2016-12-14T03:27:45.109Z,1016.85
2016-12-14T03:28:25.640Z,1016.77
2016-12-14T03:29:06.171Z,1016.78
2016-12-14T03:29:46.707Z,1016.8
2016-12-14T03:30:27.244Z,1016.77
2016-12-14T03:31:07.791Z,1016.79
2016-12-14T03:31:48.312Z,1016.76
2016-12-14T03:32:28.904Z,1016.74
2016-12-14T03:33:09.460Z,1016.78
2016-12-14T03:33:49.978Z,1016.78
2016-12-14T03:34:30.501Z,1016.72
2016-12-14T03:35:11.028Z,1016.77
2016-12-14T03:35:51.561Z,1016.76
2016-12-14T03:36:32.099Z,1016.77
2016-12-14T03:37:12.648Z,1016.81
2016-12-14T03:37:53.160Z,1016.81
2016-12-14T03:38:33.746Z,1016.82
2016-12-14T03:39:14.309Z,1016.88
2016-12-14T03:39:54.857Z,1016.81
2016-12-14T03:40:35.387Z,1016.85
2016-12-14T03:41:15.944Z,1016.85
2016-12-14T03:41:56.483Z,1016.88
2016-12-14T03:42:37.039Z,1016.86
2016-12-14T03:43:17.547Z,1016.84
2016-12-14T03:43:58.064Z,1016.84
2016-12-14T03:44:38.591Z,1016.83
2016-12-14T03:45:19.121Z,1016.86
2016-12-14T03:45:59.649Z,1016.85
2016-12-14T03:46:40.192Z,1016.85
2016-12-14T03:47:20.735Z,1016.84
2016-12-14T03:48:01.278Z,1016.83
2016-12-14T03:48:41.814Z,1016.85
2016-12-14T03:49:22.336Z,1016.87
2016-12-14T03:50:02.865Z,1016.83
2016-12-14T03:50:43.386Z,1016.84
2016-12-14T03:51:23.913Z,1016.83
2016-12-14T03:52:04.452Z,1016.83
2016-12-14T03:52:44.999Z,1016.81
2016-12-14T03:53:25.532Z,1016.79
2016-12-14T03:54:06.091Z,1016.83
2016-12-14T03:54:46.630Z,1016.76
2016-12-14T03:55:27.183Z,1016.79
2016-12-14T03:56:07.708Z,1016.8
2016-12-14T03:56:48.277Z,1016.78
2016-12-14T03:57:28.837Z,1016.77
2016-12-14T03:58:09.374Z,1016.79
2016-12-14T03:58:49.920Z,1016.78
2016-12-14T03:59:30.455Z,1016.76
2016-12-14T04:00:11.003Z,1016.8
2016-12-14T04:00:51.550Z,1016.8
2016-12-14T04:01:32.072Z,1016.78
2016-12-14T04:02:12.600Z,1016.8
2016-12-14T04:02:53.141Z,1016.81
2016-12-14T04:03:33.675Z,1016.81
2016-12-14T04:04:14.203Z,1016.79
2016-12-14T04:04:54.733Z,1016.77
2016-12-14T04:05:35.259Z,1016.8
2016-12-14T04:06:15.820Z,1016.85
2016-12-14T04:06:56.350Z,1016.84
2016-12-14T04:07:36.878Z,1016.79
2016-12-14T04:08:17.419Z,1016.8
2016-12-14T04:08:57.932Z,1016.75
2016-12-14T04:09:38.449Z,1016.78
2016-12-14T04:10:18.968Z,1016.75
2016-12-14T04:10:59.507Z,1016.75
2016-12-14T04:11:40.035Z,1016.77
2016-12-14T04:12:20.550Z,1016.72
2016-12-14T04:13:01.076Z,1016.74
2016-12-14T04:13:41.595Z,1016.8
2016-12-14T04:14:22.129Z,1016.72
2016-12-14T04:15:02.649Z,1016.7
2016-12-14T04:15:43.187Z,1016.68
2016-12-14T04:16:23.708Z,1016.72
2016-12-14T04:17:04.258Z,1016.71
2016-12-14T04:17:44.831Z,1016.7
2016-12-14T04:18:25.384Z,1016.71
2016-12-14T04:19:05.929Z,1016.74
2016-12-14T04:19:46.450Z,1016.66
2016-12-14T04:20:26.974Z,1016.71
2016-12-14T04:21:07.494Z,1016.73
2016-12-14T04:21:48.025Z,1016.75
2016-12-14T04:22:28.539Z,1016.72
2016-12-14T04:23:09.058Z,1016.71
2016-12-14T04:23:49.577Z,1016.72
2016-12-14T04:24:30.098Z,1016.7
2016-12-14T04:25:10.626Z,1016.72
2016-12-14T04:25:51.151Z,1016.72
2016-12-14T04:26:31.670Z,1016.71
2016-12-14T04:27:12.192Z,1016.71
2016-12-14T04:27:52.714Z,1016.7
2016-12-14T04:28:33.242Z,1016.68
2016-12-14T04:29:13.765Z,1016.68
2016-12-14T04:29:54.297Z,1016.68
2016-12-14T04:30:34.834Z,1016.77
2016-12-14T04:31:15.362Z,1016.7
2016-12-14T04:31:55.897Z,1016.71
2016-12-14T04:32:36.418Z,1016.74
2016-12-14T04:33:16.949Z,1016.76
2016-12-14T04:33:57.500Z,1016.75
2016-12-14T04:34:38.024Z,1016.75
2016-12-14T04:35:18.546Z,1016.7
2016-12-14T04:35:59.072Z,1016.71
2016-12-14T04:36:39.606Z,1016.67
2016-12-14T04:37:20.138Z,1016.67
2016-12-14T04:38:00.667Z,1016.65
2016-12-14T04:38:41.237Z,1016.66
2016-12-14T04:39:21.737Z,1016.7
2016-12-14T04:40:02.263Z,1016.69
2016-12-14T04:40:42.808Z,1016.69
2016-12-14T04:41:23.393Z,1016.73
2016-12-14T04:42:03.919Z,1016.68
2016-12-14T04:42:44.445Z,1016.65
2016-12-14T04:43:24.988Z,1016.67
2016-12-14T04:44:05.543Z,1016.63
2016-12-14T04:44:46.083Z,1016.67
2016-12-14T04:45:26.609Z,1016.65
2016-12-14T04:46:07.144Z,1016.7
2016-12-14T04:46:47.671Z,1016.68
2016-12-14T04:47:28.188Z,1016.69
2016-12-14T04:48:08.720Z,1016.71
2016-12-14T04:48:49.225Z,1016.72
2016-12-14T04:49:29.782Z,1016.76
2016-12-14T04:50:10.316Z,1016.73
2016-12-14T04:50:50.835Z,1016.74
2016-12-14T04:51:31.383Z,1016.72
2016-12-14T04:52:11.924Z,1016.76
2016-12-14T04:52:52.468Z,1016.75
2016-12-14T04:53:32.982Z,1016.71
2016-12-14T04:54:13.502Z,1016.76
2016-12-14T04:54:54.064Z,1016.72
2016-12-14T04:55:34.588Z,1016.74
2016-12-14T04:56:15.114Z,1016.69
2016-12-14T04:56:55.653Z,1016.73
2016-12-14T04:57:36.177Z,1016.73
2016-12-14T04:58:16.709Z,1016.69
2016-12-14T04:58:57.306Z,1016.72
2016-12-14T04:59:37.824Z,1016.7
2016-12-14T05:00:18.358Z,1016.72
2016-12-14T05:00:58.886Z,1016.68
2016-12-14T05:01:39.415Z,1016.73
2016-12-14T05:02:19.943Z,1016.67
2016-12-14T05:03:00.496Z,1016.7
2016-12-14T05:03:41.033Z,1016.69
2016-12-14T05:04:21.581Z,1016.71
2016-12-14T05:05:02.153Z,1016.69
2016-12-14T05:05:42.671Z,1016.66
2016-12-14T05:06:23.182Z,1016.66
2016-12-14T05:07:03.728Z,1016.67
2016-12-14T05:07:44.263Z,1016.64
2016-12-14T05:08:24.755Z,1016.63
2016-12-14T05:09:05.283Z,1016.62
2016-12-14T05:09:45.813Z,1016.62
2016-12-14T05:10:26.312Z,1016.65
2016-12-14T05:11:06.834Z,1016.64
2016-12-14T05:11:47.373Z,1016.63
2016-12-14T05:12:27.935Z,1016.64
2016-12-14T05:13:08.484Z,1016.64
2016-12-14T05:13:49.002Z,1016.68
2016-12-14T05:14:29.524Z,1016.71
2016-12-14T05:15:10.069Z,1016.68
2016-12-14T05:15:50.586Z,1016.67
2016-12-14T05:16:31.130Z,1016.67
2016-12-14T05:17:11.652Z,1016.65
2016-12-14T05:17:52.197Z,1016.66
2016-12-14T05:18:32.706Z,1016.64
2016-12-14T05:19:13.229Z,1016.64
2016-12-14T05:19:53.790Z,1016.64
2016-12-14T05:20:34.305Z,1016.69
2016-12-14T05:21:14.822Z,1016.73
2016-12-14T05:21:55.335Z,1016.74
2016-12-14T05:22:35.857Z,1016.72
2016-12-14T05:23:16.375Z,1016.75
2016-12-14T05:23:56.892Z,1016.78
2016-12-14T05:24:37.431Z,1016.78
2016-12-14T05:25:17.984Z,1016.82
2016-12-14T05:25:58.529Z,1016.81
2016-12-14T05:26:39.101Z,1016.83
2016-12-14T05:27:19.632Z,1016.8
2016-12-14T05:28:00.162Z,1016.78
2016-12-14T05:28:40.704Z,1016.78
2016-12-14T05:29:21.303Z,1016.75
2016-12-14T05:30:01.817Z,1016.78
2016-12-14T05:30:42.338Z,1016.75
2016-12-14T05:31:22.858Z,1016.77
2016-12-14T05:32:03.388Z,1016.87
2016-12-14T05:32:43.920Z,1016.82
2016-12-14T05:33:24.432Z,1016.82
2016-12-14T05:34:04.981Z,1016.81
2016-12-14T05:34:45.497Z,1016.84
2016-12-14T05:35:26.027Z,1016.85
2016-12-14T05:36:06.541Z,1016.81
2016-12-14T05:36:47.068Z,1016.84
2016-12-14T05:37:27.593Z,1016.83
2016-12-14T05:38:08.142Z,1016.81
2016-12-14T05:38:48.684Z,1016.81
2016-12-14T05:39:29.223Z,1016.8
2016-12-14T05:40:09.738Z,1016.78
2016-12-14T05:40:50.273Z,1016.77
2016-12-14T05:41:30.830Z,1016.73
2016-12-14T05:42:11.340Z,1016.76
2016-12-14T05:42:51.892Z,1016.78
2016-12-14T05:43:32.440Z,1016.78
2016-12-14T05:44:12.986Z,1016.79
2016-12-14T05:44:53.527Z,1016.78
2016-12-14T05:45:34.078Z,1016.78
2016-12-14T05:46:14.627Z,1016.8
2016-12-14T05:46:55.181Z,1016.81
2016-12-14T05:47:35.717Z,1016.83
2016-12-14T05:48:16.260Z,1016.84
2016-12-14T05:48:56.774Z,1016.86
2016-12-14T05:49:37.285Z,1016.85
2016-12-14T05:50:17.823Z,1016.83
2016-12-14T05:50:58.328Z,1016.82
2016-12-14T05:51:38.870Z,1016.85
2016-12-14T05:52:19.428Z,1016.88
2016-12-14T05:52:59.970Z,1016.85
2016-12-14T05:53:40.498Z,1016.91
2016-12-14T05:54:21.009Z,1016.9
2016-12-14T05:55:01.554Z,1016.86
2016-12-14T05:55:42.099Z,1016.84
2016-12-14T05:56:22.616Z,1016.86
2016-12-14T05:57:03.153Z,1016.84
2016-12-14T05:57:43.672Z,1016.86
2016-12-14T05:58:24.211Z,1016.85
2016-12-14T05:59:04.774Z,1016.83
2016-12-14T05:59:45.350Z,1016.86
2016-12-14T06:00:25.879Z,1016.85
2016-12-14T06:02:19.218Z,1016.83
2016-12-14T06:02:59.742Z,1016.83
2016-12-14T06:03:40.254Z,1016.86
2016-12-14T06:04:20.766Z,1016.85
2016-12-14T06:05:01.316Z,1016.82
2016-12-14T06:05:41.831Z,1016.85
2016-12-14T06:06:22.386Z,1016.85
2016-12-14T06:07:02.940Z,1016.85
2016-12-14T06:07:43.463Z,1016.87
2016-12-14T06:08:24.027Z,1016.89
2016-12-14T06:09:04.561Z,1016.88
2016-12-14T06:09:45.147Z,1016.9
2016-12-14T06:10:25.693Z,1016.89
2016-12-14T06:11:06.258Z,1016.9
2016-12-14T06:11:46.774Z,1016.92
2016-12-14T06:12:27.390Z,1016.93
2016-12-14T06:13:07.899Z,1016.9
2016-12-14T06:13:48.447Z,1016.88
2016-12-14T06:14:28.964Z,1016.86
2016-12-14T06:15:09.514Z,1016.92
2016-12-14T06:15:50.065Z,1016.89
2016-12-14T06:16:30.614Z,1016.93
2016-12-14T06:17:11.144Z,1016.89
2016-12-14T06:17:51.671Z,1016.92
2016-12-14T06:18:32.191Z,1016.92
2016-12-14T06:19:12.737Z,1016.93
2016-12-14T06:19:53.269Z,1016.94
2016-12-14T06:20:33.804Z,1016.92
2016-12-14T06:21:14.328Z,1016.92
2016-12-14T06:21:54.858Z,1016.92
2016-12-14T06:22:35.403Z,1016.89
2016-12-14T06:23:15.939Z,1016.86
2016-12-14T06:23:56.462Z,1016.84
2016-12-14T06:24:36.982Z,1016.89
2016-12-14T06:25:17.528Z,1016.87
2016-12-14T06:25:58.024Z,1016.91
2016-12-14T06:26:38.592Z,1016.87
2016-12-14T06:27:19.145Z,1016.9
2016-12-14T06:27:59.689Z,1016.94
2016-12-14T06:28:40.225Z,1016.91
2016-12-14T06:29:20.770Z,1016.97
2016-12-14T06:30:01.307Z,1016.93
2016-12-14T06:30:41.887Z,1016.92
2016-12-14T06:31:22.404Z,1016.93
2016-12-14T06:32:02.919Z,1016.93
2016-12-14T06:32:43.445Z,1016.94
2016-12-14T06:33:23.981Z,1016.89
2016-12-14T06:34:04.557Z,1016.95
2016-12-14T06:34:45.094Z,1016.99
2016-12-14T06:35:25.675Z,1016.99
2016-12-14T06:36:06.197Z,1017.02
2016-12-14T06:36:46.733Z,1017.02
2016-12-14T06:37:27.272Z,1017.06
2016-12-14T06:38:07.816Z,1017.03
2016-12-14T06:38:48.343Z,1017.01
2016-12-14T06:39:28.872Z,1017
2016-12-14T06:40:09.400Z,1017.02
2016-12-14T06:40:49.948Z,1016.98
2016-12-14T06:41:30.511Z,1017.04
2016-12-14T06:42:11.056Z,1016.96
2016-12-14T06:42:51.605Z,1016.96
2016-12-14T06:43:32.095Z,1016.98
2016-12-14T06:44:12.626Z,1016.95
2016-12-14T06:44:53.199Z,1016.96
2016-12-14T06:45:33.700Z,1016.97
2016-12-14T06:46:14.242Z,1016.98
2016-12-14T06:46:54.789Z,1016.97
2016-12-14T06:47:35.327Z,1016.94
2016-12-14T06:48:15.853Z,1016.91
2016-12-14T06:48:56.384Z,1016.9
2016-12-14T06:49:37.023Z,1016.9
2016-12-14T06:50:17.536Z,1016.91
2016-12-14T06:50:58.089Z,1016.88
2016-12-14T06:51:38.600Z,1016.93
2016-12-14T06:52:19.104Z,1016.91
2016-12-14T06:52:59.680Z,1016.92
2016-12-14T06:53:40.225Z,1016.91
2016-12-14T06:54:20.758Z,1016.91
2016-12-14T06:55:01.295Z,1016.91
2016-12-14T06:55:41.828Z,1016.94
2016-12-14T06:56:22.376Z,1016.95
2016-12-14T06:57:02.898Z,1016.97
2016-12-14T06:57:43.414Z,1016.96
2016-12-14T06:58:23.949Z,1016.98
2016-12-14T06:59:04.479Z,1017.02
2016-12-14T06:59:45.009Z,1017.03
2016-12-14T07:00:25.598Z,1017.05
2016-12-14T07:01:06.152Z,1017.06
2016-12-14T07:01:46.698Z,1017.09
2016-12-14T07:02:27.245Z,1017.04
2016-12-14T07:03:07.837Z,1017.08
2016-12-14T07:03:48.423Z,1017.11
2016-12-14T07:04:28.954Z,1017.1
2016-12-14T07:05:09.478Z,1017.14
2016-12-14T07:05:50.012Z,1017.12
2016-12-14T07:06:30.578Z,1017.08
2016-12-14T07:07:11.127Z,1017.13
2016-12-14T07:07:51.655Z,1017.11
2016-12-14T07:08:32.185Z,1017.16
2016-12-14T07:09:12.746Z,1017.15
2016-12-14T07:09:53.322Z,1017.14
2016-12-14T07:10:33.822Z,1017.17
2016-12-14T07:11:14.335Z,1017.12
2016-12-14T07:11:54.934Z,1017.17
2016-12-14T07:12:35.493Z,1017.17
2016-12-14T07:13:16.054Z,1017.19
2016-12-14T07:13:56.650Z,1017.15
2016-12-14T07:14:37.189Z,1017.12
2016-12-14T07:15:17.715Z,1017.18
2016-12-14T07:15:58.254Z,1017.16
2016-12-14T07:16:38.779Z,1017.18
2016-12-14T07:17:19.311Z,1017.18
2016-12-14T07:17:59.857Z,1017.15
2016-12-14T07:18:40.357Z,1017.21
2016-12-14T07:19:20.911Z,1017.19
2016-12-14T07:20:01.430Z,1017.18
2016-12-14T07:20:41.958Z,1017.18
2016-12-14T07:21:22.502Z,1017.21
2016-12-14T07:22:03.036Z,1017.21
2016-12-14T07:22:43.598Z,1017.19
2016-12-14T07:23:24.147Z,1017.23
2016-12-14T07:24:04.753Z,1017.28
2016-12-14T07:24:45.294Z,1017.25
2016-12-14T07:25:25.831Z,1017.26
2016-12-14T07:26:06.374Z,1017.29
2016-12-14T07:26:46.927Z,1017.29
2016-12-14T07:27:27.487Z,1017.23
2016-12-14T07:28:08.001Z,1017.24
2016-12-14T07:28:48.553Z,1017.22
2016-12-14T07:29:29.095Z,1017.24
2016-12-14T07:30:09.635Z,1017.26
2016-12-14T07:30:50.180Z,1017.25
2016-12-14T07:31:30.723Z,1017.23
2016-12-14T07:32:11.265Z,1017.24
2016-12-14T07:32:51.823Z,1017.27
2016-12-14T07:33:32.374Z,1017.26
2016-12-14T07:34:12.925Z,1017.32
2016-12-14T07:34:53.482Z,1017.31
2016-12-14T07:35:34.021Z,1017.32
2016-12-14T07:36:14.515Z,1017.35
2016-12-14T07:36:55.050Z,1017.38
2016-12-14T07:37:35.596Z,1017.38
2016-12-14T07:38:16.128Z,1017.4
2016-12-14T07:38:56.639Z,1017.39
2016-12-14T07:39:37.228Z,1017.42
2016-12-14T07:40:17.781Z,1017.45
2016-12-14T07:40:58.314Z,1017.44
2016-12-14T07:41:38.849Z,1017.42
2016-12-14T07:42:19.399Z,1017.4
2016-12-14T07:42:59.971Z,1017.48
2016-12-14T07:43:40.509Z,1017.5
2016-12-14T07:44:21.043Z,1017.53
2016-12-14T07:45:01.570Z,1017.5
2016-12-14T07:45:42.091Z,1017.48
2016-12-14T07:46:22.623Z,1017.5
2016-12-14T07:47:03.145Z,1017.49
2016-12-14T07:47:43.659Z,1017.55
2016-12-14T07:48:24.198Z,1017.54
2016-12-14T07:49:04.745Z,1017.57
2016-12-14T07:49:45.266Z,1017.57
2016-12-14T07:50:25.842Z,1017.63
2016-12-14T07:51:06.424Z,1017.62
2016-12-14T07:51:46.975Z,1017.59
2016-12-14T07:52:27.508Z,1017.59
2016-12-14T07:53:08.060Z,1017.6
2016-12-14T07:53:48.592Z,1017.66
2016-12-14T07:54:29.148Z,1017.66
2016-12-14T07:55:09.689Z,1017.64
2016-12-14T07:55:50.239Z,1017.66
2016-12-14T07:56:30.777Z,1017.63
2016-12-14T07:57:11.410Z,1017.63
2016-12-14T07:57:51.950Z,1017.67
2016-12-14T07:58:32.548Z,1017.63
2016-12-14T07:59:13.103Z,1017.61
2016-12-14T07:59:53.640Z,1017.63
2016-12-14T08:00:34.222Z,1017.63
2016-12-14T08:01:14.808Z,1017.63
2016-12-14T08:01:55.395Z,1017.65
2016-12-14T08:02:35.925Z,1017.66
2016-12-14T08:03:16.457Z,1017.69
2016-12-14T08:03:56.986Z,1017.69
2016-12-14T08:04:37.516Z,1017.71
2016-12-14T08:05:18.049Z,1017.73
2016-12-14T08:05:58.609Z,1017.71
2016-12-14T08:06:39.151Z,1017.74
2016-12-14T08:07:19.745Z,1017.73
2016-12-14T08:08:00.291Z,1017.72
2016-12-14T08:08:40.812Z,1017.76
2016-12-14T08:09:21.371Z,1017.78
2016-12-14T08:10:01.871Z,1017.79
2016-12-14T08:10:42.458Z,1017.73
2016-12-14T08:11:23.448Z,1017.73
2016-12-14T08:12:04.364Z,1017.73
2016-12-14T08:12:45.170Z,1017.7
2016-12-14T08:13:26.036Z,1017.7